Vassalboro, Maine
Current Conditions -  °F | °C
As of 4:35 PM on Wednesday 17 Dec 2014 (Local Time) from KWVL Reporting Station
Overcast Overcast  
Wind Chill: 27°   Ceiling: 500
Heat Index: 36°   Visibility: 3mi
Dew Point: 32°   Wind: 13mph
Humidity: 87%   Direction: 360°N
Pressure: 29.67"   Gusts: 17mph
Location:  44.46°N, 69.68°W
Report Text: KWVL 172135Z 36011G15KT 3SM OVC005 02/00 A2967 RMK AO1
Loading
Personal Weather Stations






























Interactive Weather Map New forecast layout! Learn more

10-Day Weather Forecast

Advertisements
Track Severe Weather on mobile